CGZMA CYXU-ZZZZ
Flight info
| Callsign | CGZMA |
|---|---|
| Flight time | N/A |
| Altitude | 3000 |
| Route | VFR NORTHWEST |
| Aircraft | C185 |
Departure
| Time | 2026-04-29 22:54 |
|---|---|
| Airport | London International Airport (CYXU) |
Arrival
| Time | N/A |
|---|---|
| Airport | ZZZZ |
| Time | Latitude | Longitude | Altitude | Speed | Heading |
|---|---|---|---|---|---|
| 2026-04-29 22:46 | 43.03571 | -81.16236 | 900 ft | 0 kts | 71° |
| 2026-04-29 22:46 | 43.03579 | -81.16209 | 900 ft | 10 kts | 68° |
| 2026-04-29 22:47 | 43.03646 | -81.16093 | 900 ft | 19 kts | 59° |
| 2026-04-29 22:47 | 43.03675 | -81.15930 | 900 ft | 16 kts | 78° |
| 2026-04-29 22:47 | 43.03695 | -81.15789 | 899 ft | 14 kts | 77° |
| 2026-04-29 22:47 | 43.03690 | -81.15671 | 899 ft | 12 kts | 135° |
| 2026-04-29 22:48 | 43.03630 | -81.15598 | 899 ft | 11 kts | 140° |
| 2026-04-29 22:48 | 43.03576 | -81.15538 | 899 ft | 9 kts | 138° |
| 2026-04-29 22:48 | 43.03532 | -81.15482 | 899 ft | 8 kts | 144° |
| 2026-04-29 22:48 | 43.03487 | -81.15428 | 900 ft | 9 kts | 133° |
| 2026-04-29 22:49 | 43.03430 | -81.15340 | 900 ft | 14 kts | 131° |
| 2026-04-29 22:49 | 43.03363 | -81.15253 | 900 ft | 13 kts | 139° |
| 2026-04-29 22:49 | 43.03298 | -81.15183 | 900 ft | 12 kts | 143° |
| 2026-04-29 22:49 | 43.03228 | -81.15119 | 900 ft | 13 kts | 137° |
| 2026-04-29 22:50 | 43.03156 | -81.15031 | 899 ft | 15 kts | 140° |
| 2026-04-29 22:50 | 43.03068 | -81.14925 | 899 ft | 18 kts | 138° |
| 2026-04-29 22:50 | 43.02964 | -81.14799 | 899 ft | 21 kts | 139° |
| 2026-04-29 22:50 | 43.02845 | -81.14659 | 900 ft | 24 kts | 139° |
| 2026-04-29 22:51 | 43.02715 | -81.14500 | 900 ft | 26 kts | 139° |
| 2026-04-29 22:51 | 43.02583 | -81.14341 | 900 ft | 24 kts | 134° |
| 2026-04-29 22:51 | 43.02364 | -81.14077 | 899 ft | 19 kts | 139° |
| 2026-04-29 22:52 | 43.02320 | -81.13962 | 899 ft | 12 kts | 36° |
| 2026-04-29 22:52 | 43.02353 | -81.13912 | 899 ft | 0 kts | 52° |
| 2026-04-29 22:53 | 43.02353 | -81.13911 | 899 ft | 3 kts | 52° |
| 2026-04-29 22:53 | 43.02424 | -81.13841 | 898 ft | 13 kts | 332° |
| 2026-04-29 22:53 | 43.02548 | -81.13982 | 898 ft | 42 kts | 318° |
| 2026-04-29 22:53 | 43.02928 | -81.14462 | 1015 ft | 98 kts | 319° |
| 2026-04-29 22:54 | 43.03478 | -81.15105 | 1371 ft | 107 kts | 324° |
| 2026-04-29 22:54 | 43.04041 | -81.15690 | 1703 ft | 100 kts | 323° |
| 2026-04-29 22:54 | 43.04521 | -81.16381 | 1834 ft | 105 kts | 309° |
| 2026-04-29 22:54 | 43.04869 | -81.17295 | 1928 ft | 112 kts | 299° |
| 2026-04-29 22:55 | 43.05173 | -81.18281 | 2022 ft | 113 kts | 301° |
| 2026-04-29 22:55 | 43.05534 | -81.19205 | 2210 ft | 104 kts | 309° |
| 2026-04-29 22:55 | 43.05953 | -81.20004 | 2354 ft | 104 kts | 314° |
| 2026-04-29 22:55 | 43.06408 | -81.20768 | 2398 ft | 105 kts | 316° |
| 2026-04-29 22:56 | 43.06890 | -81.21498 | 2529 ft | 99 kts | 319° |
| 2026-04-29 22:56 | 43.07362 | -81.22130 | 2700 ft | 92 kts | 324° |
| 2026-04-29 22:56 | 43.07874 | -81.22706 | 2715 ft | 99 kts | 325° |
| 2026-04-29 22:56 | 43.08322 | -81.23420 | 2846 ft | 98 kts | 306° |
| 2026-04-29 22:57 | 43.08600 | -81.24262 | 2984 ft | 96 kts | 301° |
| 2026-04-29 22:57 | 43.08877 | -81.25075 | 3037 ft | 100 kts | 304° |
| 2026-04-29 22:57 | 43.09245 | -81.25910 | 3105 ft | 98 kts | 312° |
| 2026-04-29 22:57 | 43.09640 | -81.26621 | 3214 ft | 96 kts | 316° |
| 2026-04-29 22:58 | 43.10132 | -81.27258 | 3245 ft | 96 kts | 326° |
| 2026-04-29 22:58 | 43.10622 | -81.27888 | 3329 ft | 95 kts | 319° |
| 2026-04-29 22:58 | 43.11081 | -81.28498 | 3462 ft | 89 kts | 327° |
| 2026-04-29 22:58 | 43.11595 | -81.29043 | 3466 ft | 97 kts | 326° |
| 2026-04-29 22:59 | 43.12129 | -81.29645 | 3499 ft | 103 kts | 323° |
| 2026-04-29 22:59 | 43.12649 | -81.30335 | 3596 ft | 99 kts | 320° |
| 2026-04-29 22:59 | 43.13110 | -81.30976 | 3708 ft | 94 kts | 321° |
| 2026-04-29 22:59 | 43.13581 | -81.31592 | 3777 ft | 92 kts | 318° |
| 2026-04-29 23:00 | 43.13949 | -81.32277 | 3885 ft | 89 kts | 311° |
| 2026-04-29 23:00 | 43.14244 | -81.32976 | 4059 ft | 81 kts | 302° |
| 2026-04-29 23:00 | 43.14459 | -81.33708 | 4105 ft | 85 kts | 301° |
| 2026-04-29 23:00 | 43.14691 | -81.34430 | 4224 ft | 80 kts | 301° |
| 2026-04-29 23:01 | 43.14919 | -81.35106 | 4295 ft | 77 kts | 306° |
| 2026-04-29 23:01 | 43.15176 | -81.35774 | 4340 ft | 82 kts | 302° |
| 2026-04-29 23:01 | 43.15440 | -81.36477 | 4512 ft | 86 kts | 302° |
| 2026-04-29 23:01 | 43.15750 | -81.37282 | 4526 ft | 102 kts | 303° |
| 2026-04-29 23:02 | 43.16113 | -81.38144 | 4562 ft | 104 kts | 306° |
| 2026-04-29 23:02 | 43.16515 | -81.38968 | 4531 ft | 105 kts | 308° |
| 2026-04-29 23:02 | 43.16945 | -81.39766 | 4475 ft | 103 kts | 312° |
| 2026-04-29 23:02 | 43.17377 | -81.40501 | 4510 ft | 95 kts | 314° |
| 2026-04-29 23:03 | 43.17812 | -81.41166 | 4494 ft | 93 kts | 316° |
| 2026-04-29 23:03 | 43.18257 | -81.41798 | 4519 ft | 91 kts | 316° |
| 2026-04-29 23:03 | 43.18683 | -81.42421 | 4534 ft | 90 kts | 316° |
| 2026-04-29 23:03 | 43.19117 | -81.43038 | 4561 ft | 88 kts | 316° |
| 2026-04-29 23:04 | 43.19527 | -81.43682 | 4537 ft | 92 kts | 310° |
| 2026-04-29 23:04 | 43.19884 | -81.44390 | 4572 ft | 90 kts | 304° |
| 2026-04-29 23:04 | 43.20151 | -81.45163 | 4589 ft | 91 kts | 299° |
| 2026-04-29 23:04 | 43.20447 | -81.45933 | 4590 ft | 90 kts | 304° |
| 2026-04-29 23:05 | 43.20782 | -81.46645 | 4585 ft | 91 kts | 308° |
| 2026-04-29 23:05 | 43.21137 | -81.47362 | 4588 ft | 90 kts | 307° |
| 2026-04-29 23:05 | 43.21483 | -81.48086 | 4578 ft | 92 kts | 307° |
| 2026-04-29 23:05 | 43.21861 | -81.48786 | 4604 ft | 90 kts | 311° |
| 2026-04-29 23:06 | 43.22231 | -81.49499 | 4568 ft | 94 kts | 306° |
| 2026-04-29 23:06 | 43.22596 | -81.50271 | 4531 ft | 96 kts | 308° |
| 2026-04-29 23:06 | 43.23005 | -81.50963 | 4562 ft | 91 kts | 313° |
| 2026-04-29 23:06 | 43.23417 | -81.51623 | 4563 ft | 91 kts | 314° |
| 2026-04-29 23:07 | 43.23866 | -81.52245 | 4550 ft | 93 kts | 322° |
| 2026-04-29 23:07 | 43.24369 | -81.52775 | 4582 ft | 89 kts | 324° |
| 2026-04-29 23:07 | 43.24887 | -81.53257 | 4552 ft | 93 kts | 330° |
| 2026-04-29 23:07 | 43.25445 | -81.53677 | 4562 ft | 90 kts | 334° |
| 2026-04-29 23:08 | 43.25807 | -81.53976 | 4565 ft | 89 kts | 325° |
| 2026-04-29 23:08 | 43.26423 | -81.54757 | 4524 ft | 94 kts | 313° |
| 2026-04-29 23:08 | 43.26811 | -81.55469 | 4513 ft | 91 kts | 308° |
| 2026-04-29 23:08 | 43.27162 | -81.56217 | 4366 ft | 95 kts | 306° |
| 2026-04-29 23:09 | 43.27494 | -81.56989 | 4235 ft | 96 kts | 307° |
| 2026-04-29 23:09 | 43.27826 | -81.57783 | 4110 ft | 94 kts | 305° |
| 2026-04-29 23:09 | 43.28136 | -81.58570 | 3980 ft | 95 kts | 305° |
| 2026-04-29 23:09 | 43.28456 | -81.59362 | 3881 ft | 93 kts | 306° |
| 2026-04-29 23:10 | 43.28785 | -81.60140 | 3751 ft | 95 kts | 307° |
| 2026-04-29 23:10 | 43.29092 | -81.60925 | 3677 ft | 92 kts | 306° |
| 2026-04-29 23:10 | 43.29407 | -81.61693 | 3575 ft | 93 kts | 307° |
| 2026-04-29 23:10 | 43.29714 | -81.62471 | 3512 ft | 91 kts | 308° |
| 2026-04-29 23:11 | 43.30047 | -81.63203 | 3394 ft | 93 kts | 314° |
| 2026-04-29 23:11 | 43.30479 | -81.63825 | 3338 ft | 86 kts | 325° |
| 2026-04-29 23:11 | 43.30902 | -81.64445 | 3245 ft | 90 kts | 315° |